Sheridan, WY

6:08 AM MST on December 29, 2014 (GMT -0700)
Sheridan County | Change Station
CLOSE
Current Station
Airport
Location: Sheridan,
Elevation: 3967 ft
Nearby Weather Stations
Active Advisory: Winter Weather Advisory

Elev 3967 ft 44.76 °N, 106.97 °W | Updated 15 minutes ago

Snow
Snow
7 °F
Feels Like -13 °F
N
21
Wind Variable Wind from NW

Today
High -- | Low -- °F
--% Chance of Precip.
Yesterday
High -- | Low -- °F
Precip. -- in
7:45 AM 4:35 PM
First Quarter, 59% visible
Pressure 30.58 in
Visibility 2.5 miles
Clouds Overcast 2400 ft
Windchill -13 °F
Dew Point 2 °F
Humidity 80%
Rainfall 0.04 in
Snow Depth Not available.
UV 0 out of 12
Pollen .10 out of 12
Air Quality Not available.
Flu Activity Not available.
METAR KSHR 291253Z AUTO 31018KT 2 1/2SM -SN OVC024 M14/M17 A3038 RMK AO2 SLP355 P0001 T11391167

More Conditions Fewer Conditions

Pressure 30.58 in
Visibility 2.5 miles
Clouds Overcast 2400 ft
Windchill -13 °F
Dew Point 2 °F
Humidity 80%
Rainfall 0.04 in
Snow Depth Not available.
UV 0 out of 12
Pollen .10 out of 12
Air Quality Not available.
Flu Activity Not available.
METAR KSHR 291253Z AUTO 31018KT 2 1/2SM -SN OVC024 M14/M17 A3038 RMK AO2 SLP355 P0001 T11391167

More Conditions Fewer Conditions

10-Day Weather Forecast

Almanac

Astronomy

Dec. 29, 2014 Rise Set
Actual Time
Civil Twilight
Nautical Twilight
Astronomical Twilight
Moon
Length of Visible Light
Length of Day
Tomorrow will be .
, % of the Moon is Illuminated

Today's Extremes

State Highs State Lows

Community

WunderPhotos

Upload Photos

1,781,574 photos uploaded!

WunderBlogs® & News

Nearby

Air Quality

  Air Quality AQ Index Pollutant
Not available.

Snow Depth

Station Depth Elevation

Earthquake Activity

City Distance Mag. Time & Date
Minimum magnitude displayed is 2.5.

Coastal Water Temperatures

Place Temperature

Nearby Weather Stations